sensor_id;sensor_type;location;lat;lon;timestamp;pressure;altitude;pressure_sealevel;temperature;humidity
46015;BME280;36844;51.898;-0.874;2023-02-18T00:02:06;101040.34;;;19.19;
46015;BME280;36844;51.898;-0.874;2023-02-18T00:04:31;101037.22;;;19.17;
46015;BME280;36844;51.898;-0.874;2023-02-18T00:06:56;101033.00;;;19.16;
46015;BME280;36844;51.898;-0.874;2023-02-18T00:09:23;101040.72;;;19.14;
46015;BME280;36844;51.898;-0.874;2023-02-18T00:11:49;101032.25;;;19.12;
46015;BME280;36844;51.898;-0.874;2023-02-18T00:14:15;101033.41;;;19.11;
46015;BME280;36844;51.898;-0.874;2023-02-18T00:16:40;101039.59;;;19.08;
46015;BME280;36844;51.898;-0.874;2023-02-18T00:19:07;101048.06;;;19.07;
46015;BME280;36844;51.898;-0.874;2023-02-18T00:21:34;101042.31;;;19.05;
46015;BME280;36844;51.898;-0.874;2023-02-18T00:23:59;101031.09;;;19.03;
46015;BME280;36844;51.898;-0.874;2023-02-18T00:26:24;101026.84;;;19.02;
46015;BME280;36844;51.898;-0.874;2023-02-18T00:28:50;101037.28;;;19.00;
46015;BME280;36844;51.898;-0.874;2023-02-18T00:31:24;101031.09;;;18.99;
46015;BME280;36844;51.898;-0.874;2023-02-18T00:33:49;101040.38;;;18.98;
46015;BME280;36844;51.898;-0.874;2023-02-18T00:36:16;101031.09;;;18.96;
46015;BME280;36844;51.898;-0.874;2023-02-18T00:38:48;101040.38;;;18.95;
46015;BME280;36844;51.898;-0.874;2023-02-18T00:41:13;101027.25;;;18.93;
46015;BME280;36844;51.898;-0.874;2023-02-18T00:43:38;101031.09;;;18.92;
46015;BME280;36844;51.898;-0.874;2023-02-18T00:46:04;101028.81;;;18.91;
46015;BME280;36844;51.898;-0.874;2023-02-18T00:48:30;101038.81;;;18.90;
46015;BME280;36844;51.898;-0.874;2023-02-18T00:50:55;101046.53;;;18.88;
46015;BME280;36844;51.898;-0.874;2023-02-18T00:53:20;101036.91;;;18.87;
46015;BME280;36844;51.898;-0.874;2023-02-18T00:55:46;101042.69;;;18.86;
46015;BME280;36844;51.898;-0.874;2023-02-18T00:58:12;101035.75;;;18.85;
46015;BME280;36844;51.898;-0.874;2023-02-18T01:00:37;101028.81;;;18.84;
46015;BME280;36844;51.898;-0.874;2023-02-18T01:03:02;101027.25;;;18.83;
46015;BME280;36844;51.898;-0.874;2023-02-18T01:05:30;101020.31;;;18.82;
46015;BME280;36844;51.898;-0.874;2023-02-18T01:07:55;101020.72;;;18.80;
46015;BME280;36844;51.898;-0.874;2023-02-18T01:10:20;101014.94;;;18.78;
46015;BME280;36844;51.898;-0.874;2023-02-18T01:12:46;101024.94;;;18.77;
46015;BME280;36844;51.898;-0.874;2023-02-18T01:15:12;101020.72;;;18.77;
46015;BME280;36844;51.898;-0.874;2023-02-18T01:17:38;101012.97;;;18.75;
46015;BME280;36844;51.898;-0.874;2023-02-18T01:20:04;101014.91;;;18.74;
46015;BME280;36844;51.898;-0.874;2023-02-18T01:22:29;101014.53;;;18.72;
46015;BME280;36844;51.898;-0.874;2023-02-18T01:24:55;101012.22;;;18.71;
46015;BME280;36844;51.898;-0.874;2023-02-18T01:27:20;101001.41;;;18.71;
46015;BME280;36844;51.898;-0.874;2023-02-18T01:29:45;101009.16;;;18.69;
46015;BME280;36844;51.898;-0.874;2023-02-18T01:32:10;101008.38;;;18.68;
46015;BME280;36844;51.898;-0.874;2023-02-18T01:34:36;100997.94;;;18.67;
46015;BME280;36844;51.898;-0.874;2023-02-18T01:37:01;101001.06;;;18.65;
46015;BME280;36844;51.898;-0.874;2023-02-18T01:39:26;101005.69;;;18.65;
46015;BME280;36844;51.898;-0.874;2023-02-18T01:41:52;100997.97;;;18.63;
46015;BME280;36844;51.898;-0.874;2023-02-18T01:44:18;100991.06;;;18.62;
46015;BME280;36844;51.898;-0.874;2023-02-18T01:46:44;100986.03;;;18.61;
46015;BME280;36844;51.898;-0.874;2023-02-18T01:49:09;100989.84;;;18.60;
46015;BME280;36844;51.898;-0.874;2023-02-18T01:51:38;100977.16;;;18.60;
46015;BME280;36844;51.898;-0.874;2023-02-18T01:54:08;100971.41;;;18.58;
46015;BME280;36844;51.898;-0.874;2023-02-18T01:56:38;100950.16;;;18.57;
46015;BME280;36844;51.898;-0.874;2023-02-18T01:59:06;100937.06;;;18.55;
46015;BME280;36844;51.898;-0.874;2023-02-18T02:01:32;100933.63;;;18.55;
46015;BME280;36844;51.898;-0.874;2023-02-18T02:03:58;100914.31;;;18.53;
46015;BME280;36844;51.898;-0.874;2023-02-18T02:06:24;100915.50;;;18.52;
46015;BME280;36844;51.898;-0.874;2023-02-18T02:09:00;100916.66;;;18.51;
46015;BME280;36844;51.898;-0.874;2023-02-18T02:11:49;100925.13;;;18.49;
46015;BME280;36844;51.898;-0.874;2023-02-18T02:14:34;100917.41;;;18.48;
46015;BME280;36844;51.898;-0.874;2023-02-18T02:22:28;100917.81;;;18.43;
46015;BME280;36844;51.898;-0.874;2023-02-18T02:25:17;100918.56;;;18.40;
46015;BME280;36844;51.898;-0.874;2023-02-18T02:43:05;100897.78;;;18.33;
46015;BME280;36844;51.898;-0.874;2023-02-18T02:51:09;100890.84;;;18.29;
46015;BME280;36844;51.898;-0.874;2023-02-18T02:53:35;100900.13;;;18.28;
46015;BME280;36844;51.898;-0.874;2023-02-18T02:56:01;100905.53;;;18.28;
46015;BME280;36844;51.898;-0.874;2023-02-18T02:58:26;100922.06;;;18.26;
46015;BME280;36844;51.898;-0.874;2023-02-18T03:01:11;100915.88;;;18.26;
46015;BME280;36844;51.898;-0.874;2023-02-18T03:09:09;100888.94;;;18.22;
46015;BME280;36844;51.898;-0.874;2023-02-18T03:14:30;100871.63;;;18.20;
46015;BME280;36844;51.898;-0.874;2023-02-18T03:17:00;100875.06;;;18.17;
46015;BME280;36844;51.898;-0.874;2023-02-18T03:19:28;100871.19;;;18.18;
46015;BME280;36844;51.898;-0.874;2023-02-18T03:21:56;100856.94;;;18.17;
46015;BME280;36844;51.898;-0.874;2023-02-18T03:24:23;100853.50;;;18.17;
46015;BME280;36844;51.898;-0.874;2023-02-18T03:26:51;100842.31;;;18.15;
46015;BME280;36844;51.898;-0.874;2023-02-18T03:29:18;100842.31;;;18.15;
46015;BME280;36844;51.898;-0.874;2023-02-18T03:31:44;100840.03;;;18.13;
46015;BME280;36844;51.898;-0.874;2023-02-18T03:34:19;100839.28;;;18.13;
46015;BME280;36844;51.898;-0.874;2023-02-18T03:36:47;100841.19;;;18.12;
46015;BME280;36844;51.898;-0.874;2023-02-18T03:39:16;100842.34;;;18.11;
46015;BME280;36844;51.898;-0.874;2023-02-18T03:41:42;100838.84;;;18.11;
46015;BME280;36844;51.898;-0.874;2023-02-18T03:44:08;100827.72;;;18.09;
46015;BME280;36844;51.898;-0.874;2023-02-18T03:46:34;100810.00;;;18.08;
46015;BME280;36844;51.898;-0.874;2023-02-18T03:48:59;100815.38;;;18.08;
46015;BME280;36844;51.898;-0.874;2023-02-18T03:51:25;100788.81;;;18.06;
46015;BME280;36844;51.898;-0.874;2023-02-18T03:53:50;100799.59;;;18.06;
46015;BME280;36844;51.898;-0.874;2023-02-18T03:56:15;100800.00;;;18.05;
46015;BME280;36844;51.898;-0.874;2023-02-18T03:58:41;100787.66;;;18.04;
46015;BME280;36844;51.898;-0.874;2023-02-18T04:01:06;100775.31;;;18.03;
46015;BME280;36844;51.898;-0.874;2023-02-18T04:03:31;100769.19;;;18.02;
46015;BME280;36844;51.898;-0.874;2023-02-18T04:05:57;100778.44;;;18.01;
46015;BME280;36844;51.898;-0.874;2023-02-18T04:08:22;100776.88;;;18.00;
46015;BME280;36844;51.898;-0.874;2023-02-18T04:10:47;100803.84;;;18.00;
46015;BME280;36844;51.898;-0.874;2023-02-18T04:13:13;100788.06;;;17.99;
46015;BME280;36844;51.898;-0.874;2023-02-18T04:15:38;100792.66;;;17.98;
46015;BME280;36844;51.898;-0.874;2023-02-18T04:18:03;100786.50;;;17.98;
46015;BME280;36844;51.898;-0.874;2023-02-18T04:20:29;100807.31;;;17.97;
46015;BME280;36844;51.898;-0.874;2023-02-18T04:22:54;100811.53;;;17.95;
46015;BME280;36844;51.898;-0.874;2023-02-18T04:25:19;100808.84;;;17.95;
46015;BME280;36844;51.898;-0.874;2023-02-18T04:27:45;100801.91;;;17.94;
46015;BME280;36844;51.898;-0.874;2023-02-18T04:30:10;100799.19;;;17.94;
46015;BME280;36844;51.898;-0.874;2023-02-18T04:32:35;100801.16;;;17.93;
46015;BME280;36844;51.898;-0.874;2023-02-18T04:35:01;100809.63;;;17.92;
46015;BME280;36844;51.898;-0.874;2023-02-18T04:37:26;100801.53;;;17.92;
46015;BME280;36844;51.898;-0.874;2023-02-18T04:39:51;100788.44;;;17.90;
46015;BME280;36844;51.898;-0.874;2023-02-18T04:42:16;100800.00;;;17.91;
46015;BME280;36844;51.898;-0.874;2023-02-18T04:44:42;100797.69;;;17.89;
46015;BME280;36844;51.898;-0.874;2023-02-18T04:47:07;100778.44;;;17.87;
46015;BME280;36844;51.898;-0.874;2023-02-18T04:49:32;100790.72;;;17.88;
46015;BME280;36844;51.898;-0.874;2023-02-18T04:51:58;100791.13;;;17.87;
46015;BME280;36844;51.898;-0.874;2023-02-18T04:54:23;100787.66;;;17.86;
46015;BME280;36844;51.898;-0.874;2023-02-18T04:56:48;100786.13;;;17.85;
46015;BME280;36844;51.898;-0.874;2023-02-18T04:59:14;100780.75;;;17.85;
46015;BME280;36844;51.898;-0.874;2023-02-18T05:01:39;100791.91;;;17.84;
46015;BME280;36844;51.898;-0.874;2023-02-18T05:04:04;100793.81;;;17.83;
46015;BME280;36844;51.898;-0.874;2023-02-18T05:06:29;100810.00;;;17.83;
46015;BME280;36844;51.898;-0.874;2023-02-18T05:08:55;100818.47;;;17.82;
46015;BME280;36844;51.898;-0.874;2023-02-18T05:11:20;100812.28;;;17.81;
46015;BME280;36844;51.898;-0.874;2023-02-18T05:13:45;100814.25;;;17.81;
46015;BME280;36844;51.898;-0.874;2023-02-18T05:16:10;100808.44;;;17.78;
46015;BME280;36844;51.898;-0.874;2023-02-18T05:18:36;100806.91;;;17.77;
46015;BME280;36844;51.898;-0.874;2023-02-18T05:21:01;100800.75;;;17.77;
46015;BME280;36844;51.898;-0.874;2023-02-18T05:23:26;100791.91;;;17.77;
46015;BME280;36844;51.898;-0.874;2023-02-18T05:25:51;100786.88;;;17.75;
46015;BME280;36844;51.898;-0.874;2023-02-18T05:28:17;100781.50;;;17.75;
46015;BME280;36844;51.898;-0.874;2023-02-18T05:30:42;100779.19;;;17.73;
46015;BME280;36844;51.898;-0.874;2023-02-18T05:33:07;100791.91;;;17.73;
46015;BME280;36844;51.898;-0.874;2023-02-18T05:35:32;100789.97;;;17.73;
46015;BME280;36844;51.898;-0.874;2023-02-18T05:37:58;100776.88;;;17.72;
46015;BME280;36844;51.898;-0.874;2023-02-18T05:40:23;100784.97;;;17.72;
46015;BME280;36844;51.898;-0.874;2023-02-18T05:42:48;100783.41;;;17.71;
46015;BME280;36844;51.898;-0.874;2023-02-18T05:45:13;100779.97;;;17.70;
46015;BME280;36844;51.898;-0.874;2023-02-18T05:47:38;100792.66;;;17.70;
46015;BME280;36844;51.898;-0.874;2023-02-18T05:50:04;100789.22;;;17.69;
46015;BME280;36844;51.898;-0.874;2023-02-18T05:52:29;100777.66;;;17.69;
46015;BME280;36844;51.898;-0.874;2023-02-18T05:54:55;100776.13;;;17.68;
46015;BME280;36844;51.898;-0.874;2023-02-18T05:57:20;100778.81;;;17.68;
46015;BME280;36844;51.898;-0.874;2023-02-18T05:59:45;100775.34;;;17.67;
46015;BME280;36844;51.898;-0.874;2023-02-18T06:02:14;100762.25;;;17.66;
46015;BME280;36844;51.898;-0.874;2023-02-18T06:04:39;100756.88;;;17.66;
46015;BME280;36844;51.898;-0.874;2023-02-18T06:07:07;100764.19;;;17.65;
46015;BME280;36844;51.898;-0.874;2023-02-18T06:09:32;100744.94;;;17.60;
46015;BME280;36844;51.898;-0.874;2023-02-18T06:11:58;100753.00;;;17.63;
46015;BME280;36844;51.898;-0.874;2023-02-18T06:14:23;100758.41;;;17.63;
46015;BME280;36844;51.898;-0.874;2023-02-18T06:16:48;100756.88;;;17.62;
46015;BME280;36844;51.898;-0.874;2023-02-18T06:19:14;100755.34;;;17.61;
46015;BME280;36844;51.898;-0.874;2023-02-18T06:21:39;100751.88;;;17.61;
46015;BME280;36844;51.898;-0.874;2023-02-18T06:24:04;100749.19;;;17.61;
46015;BME280;36844;51.898;-0.874;2023-02-18T06:26:30;100753.03;;;17.60;
46015;BME280;36844;51.898;-0.874;2023-02-18T06:28:55;100753.78;;;17.60;
46015;BME280;36844;51.898;-0.874;2023-02-18T06:31:20;100751.50;;;17.59;
46015;BME280;36844;51.898;-0.874;2023-02-18T06:33:45;100748.06;;;17.58;
46015;BME280;36844;51.898;-0.874;2023-02-18T06:36:11;100741.09;;;17.57;
46015;BME280;36844;51.898;-0.874;2023-02-18T06:38:37;100749.19;;;17.57;
46015;BME280;36844;51.898;-0.874;2023-02-18T06:41:02;100757.25;;;17.57;
46015;BME280;36844;51.898;-0.874;2023-02-18T06:43:28;100761.09;;;17.56;
46015;BME280;36844;51.898;-0.874;2023-02-18T06:45:53;100759.53;;;17.55;
46015;BME280;36844;51.898;-0.874;2023-02-18T06:48:19;100775.69;;;17.55;
46015;BME280;36844;51.898;-0.874;2023-02-18T06:50:44;100774.56;;;17.56;
46015;BME280;36844;51.898;-0.874;2023-02-18T06:53:09;100756.50;;;17.57;
46015;BME280;36844;51.898;-0.874;2023-02-18T06:55:35;100749.19;;;17.57;
46015;BME280;36844;51.898;-0.874;2023-02-18T06:58:00;100753.78;;;17.57;
46015;BME280;36844;51.898;-0.874;2023-02-18T07:00:25;100763.00;;;17.59;
46015;BME280;36844;51.898;-0.874;2023-02-18T07:02:50;100753.78;;;17.60;
46015;BME280;36844;51.898;-0.874;2023-02-18T07:05:16;100760.75;;;17.61;
46015;BME280;36844;51.898;-0.874;2023-02-18T07:07:41;100764.56;;;17.64;
46015;BME280;36844;51.898;-0.874;2023-02-18T07:10:06;100746.88;;;17.66;
46015;BME280;36844;51.898;-0.874;2023-02-18T07:12:32;100751.88;;;17.68;
46015;BME280;36844;51.898;-0.874;2023-02-18T07:14:57;100757.25;;;17.71;
46015;BME280;36844;51.898;-0.874;2023-02-18T07:17:22;100756.13;;;17.72;
46015;BME280;36844;51.898;-0.874;2023-02-18T07:19:48;100764.59;;;17.78;
46015;BME280;36844;51.898;-0.874;2023-02-18T07:22:13;100769.19;;;17.81;
46015;BME280;36844;51.898;-0.874;2023-02-18T07:24:38;100768.78;;;17.86;
46015;BME280;36844;51.898;-0.874;2023-02-18T07:27:03;100767.66;;;17.91;
46015;BME280;36844;51.898;-0.874;2023-02-18T07:29:29;100769.19;;;17.95;
46015;BME280;36844;51.898;-0.874;2023-02-18T07:31:54;100782.28;;;18.00;
46015;BME280;36844;51.898;-0.874;2023-02-18T07:34:19;100770.72;;;18.03;
46015;BME280;36844;51.898;-0.874;2023-02-18T07:36:45;100780.34;;;18.08;
46015;BME280;36844;51.898;-0.874;2023-02-18T07:39:10;100789.97;;;18.12;
46015;BME280;36844;51.898;-0.874;2023-02-18T07:41:35;100784.56;;;18.16;
46015;BME280;36844;51.898;-0.874;2023-02-18T07:44:00;100798.81;;;18.20;
46015;BME280;36844;51.898;-0.874;2023-02-18T07:46:26;100806.13;;;18.23;
46015;BME280;36844;51.898;-0.874;2023-02-18T07:48:51;100806.13;;;18.26;
46015;BME280;36844;51.898;-0.874;2023-02-18T07:51:16;100804.56;;;18.29;
46015;BME280;36844;51.898;-0.874;2023-02-18T07:53:41;100796.88;;;18.31;
46015;BME280;36844;51.898;-0.874;2023-02-18T07:56:07;100794.16;;;18.34;
46015;BME280;36844;51.898;-0.874;2023-02-18T07:58:34;100800.69;;;18.37;
46015;BME280;36844;51.898;-0.874;2023-02-18T08:00:59;100821.47;;;18.40;
46015;BME280;36844;51.898;-0.874;2023-02-18T08:03:28;100816.84;;;18.44;
46015;BME280;36844;51.898;-0.874;2023-02-18T08:05:55;100811.44;;;18.47;
46015;BME280;36844;51.898;-0.874;2023-02-18T08:08:22;100822.25;;;18.51;
46015;BME280;36844;51.898;-0.874;2023-02-18T08:10:50;100826.88;;;18.54;
46015;BME280;36844;51.898;-0.874;2023-02-18T08:13:15;100816.44;;;18.56;
46015;BME280;36844;51.898;-0.874;2023-02-18T08:15:40;100820.31;;;18.58;
46015;BME280;36844;51.898;-0.874;2023-02-18T08:18:06;100814.13;;;18.61;
46015;BME280;36844;51.898;-0.874;2023-02-18T08:20:36;100822.22;;;18.65;
46015;BME280;36844;51.898;-0.874;2023-02-18T08:23:04;100821.41;;;18.68;
46015;BME280;36844;51.898;-0.874;2023-02-18T08:25:30;100822.53;;;18.70;
46015;BME280;36844;51.898;-0.874;2023-02-18T08:27:55;100802.91;;;18.73;
46015;BME280;36844;51.898;-0.874;2023-02-18T08:30:20;100814.84;;;18.76;
46015;BME280;36844;51.898;-0.874;2023-02-18T08:32:46;100810.22;;;18.80;
46015;BME280;36844;51.898;-0.874;2023-02-18T08:35:11;100808.63;;;18.83;
46015;BME280;36844;51.898;-0.874;2023-02-18T08:37:36;100819.06;;;18.84;
46015;BME280;36844;51.898;-0.874;2023-02-18T08:40:02;100811.31;;;18.86;
46015;BME280;36844;51.898;-0.874;2023-02-18T08:42:27;100816.34;;;18.88;
46015;BME280;36844;51.898;-0.874;2023-02-18T08:44:52;100825.97;;;18.89;
46015;BME280;36844;51.898;-0.874;2023-02-18T08:47:18;100834.84;;;18.89;
46015;BME280;36844;51.898;-0.874;2023-02-18T08:49:43;100829.44;;;18.89;
46015;BME280;36844;51.898;-0.874;2023-02-18T08:52:08;100830.97;;;18.90;
46015;BME280;36844;51.898;-0.874;2023-02-18T08:54:33;100829.03;;;18.91;
46015;BME280;36844;51.898;-0.874;2023-02-18T08:56:59;100824.78;;;18.90;
46015;BME280;36844;51.898;-0.874;2023-02-18T08:59:24;100830.56;;;18.92;
46015;BME280;36844;51.898;-0.874;2023-02-18T09:01:49;100829.81;;;18.91;
46015;BME280;36844;51.898;-0.874;2023-02-18T09:04:15;100827.13;;;18.91;
46015;BME280;36844;51.898;-0.874;2023-02-18T09:06:40;100831.34;;;18.92;
46015;BME280;36844;51.898;-0.874;2023-02-18T09:09:05;100836.75;;;18.92;
46015;BME280;36844;51.898;-0.874;2023-02-18T09:11:31;100841.38;;;18.92;
46015;BME280;36844;51.898;-0.874;2023-02-18T09:13:56;100834.44;;;18.91;
46015;BME280;36844;51.898;-0.874;2023-02-18T09:16:21;100839.47;;;18.89;
46015;BME280;36844;51.898;-0.874;2023-02-18T09:18:48;100841.38;;;18.88;
46015;BME280;36844;51.898;-0.874;2023-02-18T09:21:13;100833.28;;;18.88;
46015;BME280;36844;51.898;-0.874;2023-02-18T09:23:40;100840.63;;;18.88;
46015;BME280;36844;51.898;-0.874;2023-02-18T09:26:06;100834.47;;;18.87;
46015;BME280;36844;51.898;-0.874;2023-02-18T09:28:32;100831.75;;;18.87;
46015;BME280;36844;51.898;-0.874;2023-02-18T09:30:57;100835.25;;;18.88;
46015;BME280;36844;51.898;-0.874;2023-02-18T09:33:24;100844.88;;;18.89;
46015;BME280;36844;51.898;-0.874;2023-02-18T09:35:49;100858.34;;;18.89;
46015;BME280;36844;51.898;-0.874;2023-02-18T09:38:16;100855.25;;;18.90;
46015;BME280;36844;51.898;-0.874;2023-02-18T09:40:46;100859.50;;;18.91;
46015;BME280;36844;51.898;-0.874;2023-02-18T09:43:55;100856.44;;;18.89;
46015;BME280;36844;51.898;-0.874;2023-02-18T09:46:01;100881.09;;;18.95;
46015;BME280;36844;51.898;-0.874;2023-02-18T09:48:28;100877.22;;;18.96;
46015;BME280;36844;51.898;-0.874;2023-02-18T09:50:55;100884.19;;;18.97;
46015;BME280;36844;51.898;-0.874;2023-02-18T09:53:21;100868.34;;;18.99;
46015;BME280;36844;51.898;-0.874;2023-02-18T09:55:47;100879.91;;;18.99;
46015;BME280;36844;51.898;-0.874;2023-02-18T09:58:14;100876.84;;;19.01;
46015;BME280;36844;51.898;-0.874;2023-02-18T10:00:44;100872.19;;;19.01;
46015;BME280;36844;51.898;-0.874;2023-02-18T10:03:13;100875.66;;;19.02;
46015;BME280;36844;51.898;-0.874;2023-02-18T10:08:35;100886.84;;;19.04;
46015;BME280;36844;51.898;-0.874;2023-02-18T10:11:00;100899.94;;;19.05;
46015;BME280;36844;51.898;-0.874;2023-02-18T10:13:31;100907.66;;;19.07;
46015;BME280;36844;51.898;-0.874;2023-02-18T10:15:56;100913.84;;;19.07;
46015;BME280;36844;51.898;-0.874;2023-02-18T10:18:26;100913.84;;;19.07;
46015;BME280;36844;51.898;-0.874;2023-02-18T10:21:02;100921.16;;;19.07;
46015;BME280;36844;51.898;-0.874;2023-02-18T10:23:29;100902.25;;;19.07;
46015;BME280;36844;51.898;-0.874;2023-02-18T10:25:55;100911.16;;;19.04;
46015;BME280;36844;51.898;-0.874;2023-02-18T10:28:21;100906.13;;;19.02;
46015;BME280;36844;51.898;-0.874;2023-02-18T10:30:50;100906.13;;;18.99;
46015;BME280;36844;51.898;-0.874;2023-02-18T10:33:22;100908.47;;;18.97;
46015;BME280;36844;51.898;-0.874;2023-02-18T10:36:11;100919.28;;;18.93;
46015;BME280;36844;51.898;-0.874;2023-02-18T10:38:45;100910.03;;;18.91;
46015;BME280;36844;51.898;-0.874;2023-02-18T10:46:21;100908.13;;;18.88;
46015;BME280;36844;51.898;-0.874;2023-02-18T10:51:35;100911.19;;;18.86;
46015;BME280;36844;51.898;-0.874;2023-02-18T10:54:03;100909.66;;;18.85;
46015;BME280;36844;51.898;-0.874;2023-02-18T10:56:33;100916.56;;;18.86;
46015;BME280;36844;51.898;-0.874;2023-02-18T10:59:09;100902.31;;;18.82;
46015;BME280;36844;51.898;-0.874;2023-02-18T11:01:35;100905.78;;;18.86;
46015;BME280;36844;51.898;-0.874;2023-02-18T11:04:05;100901.16;;;18.87;
46015;BME280;36844;51.898;-0.874;2023-02-18T11:06:36;100896.53;;;18.87;
46015;BME280;36844;51.898;-0.874;2023-02-18T11:09:02;100900.03;;;18.88;
46015;BME280;36844;51.898;-0.874;2023-02-18T11:11:32;100902.31;;;18.89;
46015;BME280;36844;51.898;-0.874;2023-02-18T11:13:59;100903.47;;;18.88;
46015;BME280;36844;51.898;-0.874;2023-02-18T11:16:36;100906.94;;;18.89;
46015;BME280;36844;51.898;-0.874;2023-02-18T11:19:02;100910.03;;;18.87;
46015;BME280;36844;51.898;-0.874;2023-02-18T11:21:29;100905.78;;;18.86;
46015;BME280;36844;51.898;-0.874;2023-02-18T11:23:55;100900.78;;;18.85;
46015;BME280;36844;51.898;-0.874;2023-02-18T11:26:30;100906.19;;;18.85;
46015;BME280;36844;51.898;-0.874;2023-02-18T11:29:38;100902.31;;;18.82;
46015;BME280;36844;51.898;-0.874;2023-02-18T11:31:45;100901.97;;;18.80;
46015;BME280;36844;51.898;-0.874;2023-02-18T11:34:44;100904.28;;;18.78;
46015;BME280;36844;51.898;-0.874;2023-02-18T11:37:07;100902.75;;;18.77;
46015;BME280;36844;51.898;-0.874;2023-02-18T11:39:33;100907.75;;;18.75;
46015;BME280;36844;51.898;-0.874;2023-02-18T11:42:05;100901.22;;;18.72;
46015;BME280;36844;51.898;-0.874;2023-02-18T11:44:38;100900.06;;;18.70;
46015;BME280;36844;51.898;-0.874;2023-02-18T11:49:30;100900.81;;;18.67;
46015;BME280;36844;51.898;-0.874;2023-02-18T11:54:38;100905.47;;;18.63;
46015;BME280;36844;51.898;-0.874;2023-02-18T11:57:04;100905.06;;;18.61;
46015;BME280;36844;51.898;-0.874;2023-02-18T11:59:34;100904.69;;;18.59;
46015;BME280;36844;51.898;-0.874;2023-02-18T12:07:21;100918.59;;;18.54;
46015;BME280;36844;51.898;-0.874;2023-02-18T12:09:48;100910.09;;;18.52;
46015;BME280;36844;51.898;-0.874;2023-02-18T12:12:16;100914.72;;;18.51;
46015;BME280;36844;51.898;-0.874;2023-02-18T12:14:42;100912.41;;;18.50;
46015;BME280;36844;51.898;-0.874;2023-02-18T12:19:46;100908.94;;;18.49;
46015;BME280;36844;51.898;-0.874;2023-02-18T12:22:17;100910.88;;;18.49;
46015;BME280;36844;51.898;-0.874;2023-02-18T12:30:02;100899.69;;;18.50;
46015;BME280;36844;51.898;-0.874;2023-02-18T12:32:34;100894.31;;;18.50;
46015;BME280;36844;51.898;-0.874;2023-02-18T12:40:52;100900.09;;;18.56;
46015;BME280;36844;51.898;-0.874;2023-02-18T12:46:25;100888.50;;;18.59;
46015;BME280;36844;51.898;-0.874;2023-02-18T12:48:56;100892.72;;;18.60;
46015;BME280;36844;51.898;-0.874;2023-02-18T13:09:46;100875.38;;;18.71;
46015;BME280;36844;51.898;-0.874;2023-02-18T13:12:24;100874.22;;;18.72;
46015;BME280;36844;51.898;-0.874;2023-02-18T13:14:59;100865.34;;;18.72;
46015;BME280;36844;51.898;-0.874;2023-02-18T13:17:26;100864.56;;;18.75;
46015;BME280;36844;51.898;-0.874;2023-02-18T13:19:58;100857.25;;;18.75;
46015;BME280;36844;51.898;-0.874;2023-02-18T13:22:24;100855.31;;;18.76;
46015;BME280;36844;51.898;-0.874;2023-02-18T13:24:50;100843.38;;;18.77;
46015;BME280;36844;51.898;-0.874;2023-02-18T13:29:56;100857.63;;;18.77;
46015;BME280;36844;51.898;-0.874;2023-02-18T13:32:30;100858.41;;;18.78;
46015;BME280;36844;51.898;-0.874;2023-02-18T13:35:03;100845.66;;;18.78;
46015;BME280;36844;51.898;-0.874;2023-02-18T13:40:01;100848.34;;;18.78;
46015;BME280;36844;51.898;-0.874;2023-02-18T13:47:42;100856.88;;;18.77;
46015;BME280;36844;51.898;-0.874;2023-02-18T13:50:20;100856.88;;;18.77;
46015;BME280;36844;51.898;-0.874;2023-02-18T13:52:49;100855.31;;;18.76;
46015;BME280;36844;51.898;-0.874;2023-02-18T13:55:19;100841.47;;;18.74;
46015;BME280;36844;51.898;-0.874;2023-02-18T13:57:48;100842.63;;;18.73;
46015;BME280;36844;51.898;-0.874;2023-02-18T14:00:19;100841.06;;;18.72;
46015;BME280;36844;51.898;-0.874;2023-02-18T14:02:58;100837.59;;;18.71;
46015;BME280;36844;51.898;-0.874;2023-02-18T14:05:24;100838.00;;;18.70;
46015;BME280;36844;51.898;-0.874;2023-02-18T14:08:10;100823.75;;;18.69;
46015;BME280;36844;51.898;-0.874;2023-02-18T14:10:36;100822.97;;;18.69;
46015;BME280;36844;51.898;-0.874;2023-02-18T14:13:19;100815.25;;;18.67;
46015;BME280;36844;51.898;-0.874;2023-02-18T14:15:49;100818.38;;;18.66;
46015;BME280;36844;51.898;-0.874;2023-02-18T14:18:23;100830.28;;;18.65;
46015;BME280;36844;51.898;-0.874;2023-02-18T14:20:49;100820.66;;;18.64;
46015;BME280;36844;51.898;-0.874;2023-02-18T14:25:48;100817.59;;;18.62;
46015;BME280;36844;51.898;-0.874;2023-02-18T14:30:57;100808.34;;;18.59;
46015;BME280;36844;51.898;-0.874;2023-02-18T14:33:25;100808.75;;;18.58;
46015;BME280;36844;51.898;-0.874;2023-02-18T14:46:33;100816.47;;;18.52;
46015;BME280;36844;51.898;-0.874;2023-02-18T14:49:15;100803.38;;;18.51;
46015;BME280;36844;51.898;-0.874;2023-02-18T14:51:44;100799.13;;;18.50;
46015;BME280;36844;51.898;-0.874;2023-02-18T14:54:13;100803.00;;;18.49;
46015;BME280;36844;51.898;-0.874;2023-02-18T14:56:41;100797.59;;;18.49;
46015;BME280;36844;51.898;-0.874;2023-02-18T14:59:10;100800.66;;;18.47;
46015;BME280;36844;51.898;-0.874;2023-02-18T15:01:36;100802.59;;;18.47;
46015;BME280;36844;51.898;-0.874;2023-02-18T15:04:04;100795.66;;;18.46;
46015;BME280;36844;51.898;-0.874;2023-02-18T15:06:36;100791.44;;;18.45;
46015;BME280;36844;51.898;-0.874;2023-02-18T15:09:12;100794.53;;;18.43;
46015;BME280;36844;51.898;-0.874;2023-02-18T15:11:38;100796.44;;;18.43;
46015;BME280;36844;51.898;-0.874;2023-02-18T15:14:13;100790.69;;;18.41;
46015;BME280;36844;51.898;-0.874;2023-02-18T15:16:40;100776.81;;;18.39;
46015;BME280;36844;51.898;-0.874;2023-02-18T15:19:06;100774.88;;;18.39;
46015;BME280;36844;51.898;-0.874;2023-02-18T15:21:37;100776.06;;;18.38;
46015;BME280;36844;51.898;-0.874;2023-02-18T15:26:41;100762.59;;;18.35;
46015;BME280;36844;51.898;-0.874;2023-02-18T15:29:14;100766.03;;;18.35;
46015;BME280;36844;51.898;-0.874;2023-02-18T15:31:39;100762.94;;;18.33;
46015;BME280;36844;51.898;-0.874;2023-02-18T15:34:28;100767.56;;;18.33;